Weather at Camp I. Chondros Heliport

Public forecast

Using degrees Celsius for public forecast. Weather courtesy of forecast.io.

Closest aviation weather report (METAR) to Camp I. Chondros Heliport

Closest report is Kozani National Airport Filippos, 6.2 nm (11.5 km) SE.

2024/05/27 22:50 (retrieved 23 minutes ago)

LGKZ 272250Z AUTO 01004KT //// // ////// 12/03 Q1017 RE//

Closest aviation forecast (TAF) to Camp I. Chondros Heliport

Closest forecast is Thessaloniki Macedonia International Airport, 55.8 nm (103.3 km) E.

2024/05/27 18:16 (retrieved 5 hours ago)

TAF LGTS 271700Z 2718/2818 15012KT 9999 FEW030 BECMG 2720/2722 VRB03KT BECMG 2812/2814 17014KT